Time;durP1;ratioP1;P1;durP2;ratioP2;P2;SDS_P1;SDS_P2;PMS_P1;PMS_P2;Temp;Humidity;BMP_temperature;BMP_pressure;BME280_temperature;BME280_humidity;BME280_pressure;Samples;Min_cycle;Max_cycle;Signal;HPM_P1;HPM_P2
2022/12/27 00:00:04;;;;;;;2.05;1.87;;;;;;;9.92;82.68;99602.91;4319195;33;35523;-70
2022/12/27 00:02:40;;;;;;;2.37;1.70;;;;;;;9.91;83.24;99615.91;4319449;33;35303;-70
2022/12/27 00:05:10;;;;;;;1.58;1.48;;;;;;;9.97;82.71;99603.75;4319274;33;33420;-69
2022/12/27 00:07:38;;;;;;;4.12;1.25;;;;;;;9.63;84.17;99615.97;4319227;33;34024;-69
2022/12/27 00:10:06;;;;;;;0.73;0.73;;;;;;;9.93;82.52;99615.00;4320231;33;35072;-70
2022/12/27 00:12:36;;;;;;;2.62;1.67;;;;;;;9.78;82.85;99610.75;4295394;33;32954;-69
2022/12/27 00:15:05;;;;;;;2.95;1.35;;;;;;;10.04;82.78;99594.16;4320379;33;33383;-69
2022/12/27 00:17:33;;;;;;;1.73;1.48;;;;;;;10.19;81.94;99588.03;4320278;33;34870;-69
2022/12/27 00:20:01;;;;;;;1.85;1.55;;;;;;;10.27;80.98;99583.66;4320117;33;35058;-69
2022/12/27 00:22:38;;;;;;;;;;;;;;;10.12;81.02;99589.78;4319151;33;32896;-69
2022/12/27 00:25:07;;;;;;;1.75;1.65;;;;;;;10.40;80.44;99603.56;4320303;33;33321;-69
2022/12/27 00:27:36;;;;;;;1.98;1.87;;;;;;;10.20;80.98;99598.44;4319172;33;33956;-69
2022/12/27 00:30:04;;;;;;;1.80;1.70;;;;;;;10.04;81.41;99592.44;4320430;33;35248;-70
2022/12/27 00:32:33;;;;;;;1.02;1.02;;;;;;;9.94;82.05;99603.75;4320180;33;34028;-69
2022/12/27 00:35:01;;;;;;;1.52;1.37;;;;;;;10.09;81.11;99604.56;4307012;33;33524;-69
2022/12/27 00:37:29;;;;;;;0.80;0.80;;;;;;;9.73;82.25;99609.03;4320117;33;34032;-69
2022/12/27 00:39:58;;;;;;;1.55;1.45;;;;;;;9.90;80.91;99609.84;4319953;33;35914;-69
2022/12/27 00:42:26;;;;;;;3.10;1.77;;;;;;;9.79;81.25;99599.44;4320110;33;34464;-70
2022/12/27 00:44:54;;;;;;;0.95;0.95;;;;;;;9.96;79.93;99589.00;4318848;33;34170;-69
2022/12/27 00:47:25;;;;;;;3.10;2.87;;;;;;;10.11;79.82;99589.78;4320178;33;33381;-71
2022/12/27 00:49:53;;;;;;;1.92;1.80;;;;;;;10.09;79.67;99568.13;4320097;33;35162;-69
2022/12/27 00:52:21;;;;;;;0.65;0.65;;;;;;;10.17;79.49;99585.44;4320029;33;34652;-69
2022/12/27 00:54:49;;;;;;;0.60;0.60;;;;;;;10.31;78.73;99574.97;4319998;33;33443;-69
2022/12/27 00:57:17;;;;;;;6.35;3.50;;;;;;;10.28;78.70;99574.09;4320073;33;34745;-70
2022/12/27 00:59:46;;;;;;;0.50;0.50;;;;;;;10.35;78.59;99586.25;4318706;33;35943;-70
2022/12/27 01:02:14;;;;;;;2.30;0.80;;;;;;;10.48;77.75;99587.88;4319974;33;34287;-70
2022/12/27 01:04:42;;;;;;;0.52;0.52;;;;;;;10.05;79.05;99570.72;4319951;33;34269;-69
2022/12/27 01:07:10;;;;;;;1.62;1.52;;;;;;;10.20;79.04;99566.31;4319722;33;34720;-69
2022/12/27 01:09:39;;;;;;;1.37;1.27;;;;;;;10.28;78.87;99561.94;4319804;33;36010;-69
2022/12/27 01:12:07;;;;;;;0.60;0.60;;;;;;;10.33;78.56;99561.97;4320001;33;34957;-69
2022/12/27 01:14:34;;;;;;;1.30;1.08;;;;;;;10.33;78.37;99562.81;4320012;33;33385;-70
2022/12/27 01:17:03;;;;;;;1.00;0.95;;;;;;;10.53;77.76;99564.41;4319963;33;34930;-69
2022/12/27 01:19:38;;;;;;;0.77;0.77;;;;;;;10.43;78.49;99569.69;4319773;33;34126;-69
2022/12/27 01:22:06;;;;;;;0.60;0.60;;;;;;;10.18;79.63;99573.28;4319856;33;34361;-70
2022/12/27 01:24:34;;;;;;;2.12;0.77;;;;;;;10.26;79.06;99574.09;4319982;33;33457;-69
2022/12/27 01:27:02;;;;;;;1.02;0.93;;;;;;;10.26;78.82;99563.69;4319909;33;33776;-69
2022/12/27 01:29:31;;;;;;;1.02;1.02;;;;;;;10.19;79.62;99569.81;4318716;33;36004;-70
2022/12/27 01:31:59;;;;;;;0.50;0.50;;;;;;;10.28;79.40;99580.16;4319842;33;35173;-69
2022/12/27 01:34:27;;;;;;;0.90;0.90;;;;;;;10.22;78.98;99588.87;4319774;33;33557;-69
2022/12/27 01:36:55;;;;;;;1.23;0.60;;;;;;;10.24;78.91;99586.28;4319737;33;33832;-69
2022/12/27 01:39:23;;;;;;;0.43;0.43;;;;;;;10.27;78.79;99593.19;4318507;33;34916;-69
2022/12/27 01:44:39;;;;;;;0.40;0.40;;;;;;;10.43;78.46;99602.69;4319638;33;33361;-69
2022/12/27 01:47:24;;;;;;;0.52;0.52;;;;;;;10.48;78.35;99613.06;4319767;33;34058;-69
2022/12/27 01:49:58;;;;;;;0.50;0.50;;;;;;;10.71;77.01;99613.78;4319691;33;35094;-69
2022/12/27 01:52:45;;;;;;;0.40;0.40;;;;;;;10.66;77.46;99618.16;4319699;33;34329;-70
2022/12/27 01:55:34;;;;;;;0.60;0.60;;;;;;;10.67;76.85;99619.87;4319774;33;33712;-70
2022/12/27 01:58:15;;;;;;;0.60;0.60;;;;;;;10.55;77.26;99625.16;4319699;33;34886;-69
2022/12/27 02:00:45;;;;;;;1.08;0.98;;;;;;;10.80;76.41;99621.53;4306590;33;35883;-69
2022/12/27 02:03:38;;;;;;;0.57;0.57;;;;;;;10.60;77.16;99626.84;4306664;33;34060;-70
2022/12/27 02:06:09;;;;;;;0.68;0.68;;;;;;;10.53;77.21;99626.91;4319687;33;33367;-69
2022/12/27 02:08:49;;;;;;;1.23;1.15;;;;;;;10.71;76.78;99626.81;4306610;33;34104;-69
2022/12/27 02:11:49;;;;;;;0.73;0.73;;;;;;;11.16;74.89;99618.63;4318439;33;35048;-69
2022/12/27 02:14:11;;;;;;;0.60;0.60;;;;;;;11.18;73.77;99611.66;4319416;33;34482;-69
2022/12/27 02:16:39;;;;;;;1.45;1.35;;;;;;;11.29;73.31;99622.00;4319549;33;34253;-69
2022/12/27 02:19:28;;;;;;;1.17;1.10;;;;;;;11.06;73.89;99627.41;4318792;33;33921;-69
2022/12/27 02:22:23;;;;;;;0.55;0.55;;;;;;;11.07;73.92;99622.19;4295337;33;36071;-69
2022/12/27 02:24:57;;;;;;;1.23;1.23;;;;;;;11.44;72.05;99627.06;4280921;33;33570;-69
2022/12/27 02:27:41;;;;;;;0.75;0.75;;;;;;;11.25;72.59;99630.72;4319590;33;33829;-69
2022/12/27 02:30:11;;;;;;;1.55;1.30;;;;;;;11.44;72.48;99618.41;4319510;33;34078;-69
2022/12/27 02:32:52;;;;;;;2.17;1.80;;;;;;;11.33;72.36;99610.66;4306718;33;36004;-69
2022/12/27 02:35:31;;;;;;;1.90;1.00;;;;;;;11.17;72.96;99605.59;4318416;33;34438;-69
2022/12/27 02:38:11;;;;;;;0.40;0.40;;;;;;;11.63;71.52;99600.78;4306467;33;34249;-69
2022/12/27 02:59:14;;;;;;;0.40;0.40;;;;;;;11.28;71.66;99612.47;4308251;33;34654;-69
2022/12/27 03:04:57;;;;;;;0.60;0.60;;;;;;;11.45;70.35;99615.75;4319244;33;33904;-69
2022/12/27 03:08:00;;;;;;;;;;;;;;;11.61;70.40;99626.03;4319558;33;35039;-70
2022/12/27 03:16:40;;;;;;;0.75;0.73;;;;;;;11.65;69.26;99619.94;4308041;33;34662;-70
2022/12/27 03:25:26;;;;;;;0.85;0.82;;;;;;;11.63;69.59;99619.06;4306169;33;34977;-69
2022/12/27 03:27:43;;;;;;;0.55;0.55;;;;;;;10.99;70.68;99622.25;4318045;33;33930;-70
2022/12/27 03:33:13;;;;;;;0.85;0.85;;;;;;;11.11;70.41;99618.66;4317932;33;35134;-69
2022/12/27 03:38:01;;;;;;;0.90;0.77;;;;;;;10.76;71.81;99625.00;4317949;33;34269;-70
2022/12/27 03:38:54;;;;;;;1.17;1.08;;;;;;;10.81;71.34;99622.38;4318947;33;33596;-69
2022/12/27 03:44:25;;;;;;;0.77;0.77;;;;;;;10.11;75.04;99634.91;4307417;33;34552;-69
2022/12/27 03:46:55;;;;;;;0.70;0.70;;;;;;;10.28;74.03;99640.03;4317771;33;33442;-69
2022/12/27 03:49:33;;;;;;;1.60;1.02;;;;;;;10.01;74.98;99649.69;4318694;33;34936;-69
2022/12/27 03:52:16;;;;;;;1.27;1.08;;;;;;;10.07;74.81;99654.84;4318744;33;35003;-69
2022/12/27 03:54:47;;;;;;;0.85;0.85;;;;;;;10.44;73.70;99664.28;4305574;33;34516;-69
2022/12/27 03:57:20;;;;;;;0.40;0.40;;;;;;;10.36;72.69;99672.13;4317583;33;34292;-70
2022/12/27 03:59:48;;;;;;;0.55;0.55;;;;;;;10.59;71.58;99665.94;4317321;33;33633;-69
2022/12/27 04:02:17;;;;;;;0.32;0.32;;;;;;;10.54;70.67;99665.09;4318481;33;35031;-69
2022/12/27 04:04:49;;;;;;;0.37;0.37;;;;;;;10.06;73.57;99668.75;4305794;33;35098;-69
2022/12/27 04:07:22;;;;;;;0.32;0.32;;;;;;;10.13;72.87;99668.72;4318560;33;34334;-69
2022/12/27 04:34:50;;;;;;;1.48;1.00;;;;;;;10.16;73.68;99682.56;4316681;33;35187;-70
2022/12/27 04:37:19;;;;;;;1.58;1.08;;;;;;;10.33;72.79;99698.16;4317977;33;34517;-70
2022/12/27 04:56:33;;;;;;;0.43;0.43;;;;;;;10.43;71.54;99741.53;4319929;33;35065;-70
2022/12/27 05:02:04;;;;;;;0.40;0.40;;;;;;;10.21;72.67;99752.84;4291864;33;33374;-70
2022/12/27 05:04:36;;;;;;;1.60;1.27;;;;;;;9.86;74.48;99753.75;4302057;33;33968;-70
2022/12/27 05:15:29;;;;;;;1.10;0.68;;;;;;;9.67;75.36;99774.59;4305334;33;34273;-70
2022/12/27 05:17:57;;;;;;;0.60;0.60;;;;;;;9.68;75.09;99765.91;4303920;33;34344;-70
2022/12/27 05:20:25;;;;;;;1.05;1.05;;;;;;;9.77;74.47;99779.78;4305127;33;35308;-71
2022/12/27 05:25:41;;;;;;;7.43;2.87;;;;;;;9.91;73.90;99783.22;4305251;33;33955;-70
2022/12/27 05:28:11;;;;;;;0.82;0.82;;;;;;;9.47;74.67;99791.91;4305047;33;36104;-70
2022/12/27 05:30:42;;;;;;;0.80;0.80;;;;;;;9.49;75.78;99790.16;4305178;33;34408;-70
2022/12/27 05:33:11;;;;;;;0.62;0.62;;;;;;;9.72;74.54;99790.16;4292090;33;33509;-70
2022/12/27 05:35:39;;;;;;;2.37;2.03;;;;;;;9.45;75.38;99799.69;4305217;33;33816;-70
2022/12/27 05:38:08;;;;;;;1.27;1.17;;;;;;;9.75;74.13;99803.19;4288571;33;35105;-71
2022/12/27 05:40:36;;;;;;;2.75;1.60;;;;;;;9.76;73.98;99814.44;4303964;33;34733;-70
2022/12/27 05:43:04;;;;;;;0.93;0.93;;;;;;;9.68;73.75;99804.06;4305055;33;34224;-70
2022/12/27 05:45:33;;;;;;;2.60;2.25;;;;;;;9.59;74.05;99812.72;4291636;33;33068;-70
2022/12/27 05:48:02;;;;;;;0.95;0.95;;;;;;;9.70;74.09;99811.84;4304382;33;34977;-70
2022/12/27 05:50:35;;;;;;;0.60;0.60;;;;;;;9.66;73.82;99821.41;4305014;33;34606;-70
2022/12/27 05:53:09;;;;;;;1.27;1.17;;;;;;;9.85;72.78;99814.47;4304948;33;34330;-70
2022/12/27 05:55:37;;;;;;;0.60;0.60;;;;;;;9.63;73.59;99824.84;4291992;33;33894;-70
2022/12/27 05:58:06;;;;;;;0.73;0.73;;;;;;;9.41;74.97;99839.56;4303808;33;34397;-70
2022/12/27 06:00:34;;;;;;;0.47;0.47;;;;;;;9.65;73.86;99849.13;4304875;33;34471;-70
2022/12/27 06:03:02;;;;;;;0.90;0.90;;;;;;;9.20;75.26;99845.56;4291851;33;33437;-70
2022/12/27 06:05:31;;;;;;;1.05;1.05;;;;;;;9.26;75.26;99845.56;4305485;33;33991;-73
2022/12/27 06:07:59;;;;;;;0.70;0.70;;;;;;;9.63;73.80;99843.03;4291900;33;34312;-72
2022/12/27 06:10:27;;;;;;;0.60;0.60;;;;;;;9.17;75.49;99845.53;4305141;33;34532;-73
2022/12/27 06:12:58;;;;;;;0.40;0.40;;;;;;;9.38;75.03;99852.53;4302001;33;34343;-76
2022/12/27 06:15:28;;;;;;;1.35;1.23;;;;;;;9.24;75.54;99851.63;4304896;33;34634;-74
2022/12/27 06:17:58;;;;;;;0.40;0.40;;;;;;;9.27;75.47;99854.25;4304837;33;35272;-75
2022/12/27 06:20:29;;;;;;;0.60;0.60;;;;;;;9.27;75.19;99862.91;4304796;33;35244;-73
2022/12/27 06:22:59;;;;;;;0.60;0.60;;;;;;;9.43;74.18;99863.81;4304833;33;33397;-72
2022/12/27 06:25:27;;;;;;;1.65;0.82;;;;;;;9.03;75.89;99863.69;4304742;33;34528;-73
2022/12/27 06:27:55;;;;;;;0.75;0.75;;;;;;;8.90;75.77;99873.16;4304784;33;35170;-74
2022/12/27 06:30:23;;;;;;;1.58;0.70;;;;;;;9.06;75.53;99874.09;4304708;33;34444;-73
2022/12/27 06:32:52;;;;;;;0.93;0.93;;;;;;;9.33;73.66;99879.37;4304728;33;33384;-75
2022/12/27 06:35:21;;;;;;;0.40;0.40;;;;;;;9.15;74.59;99899.25;4304677;33;33934;-75
2022/12/27 06:37:51;;;;;;;0.50;0.50;;;;;;;8.58;76.84;99890.28;4304640;33;34233;-75
2022/12/27 06:40:20;;;;;;;0.40;0.40;;;;;;;8.72;75.38;99889.53;4304740;33;34488;-72
2022/12/27 06:42:48;;;;;;;0.70;0.70;;;;;;;8.60;76.83;99915.41;4304742;33;33402;-73
2022/12/27 06:45:17;;;;;;;0.70;0.70;;;;;;;8.77;75.84;99912.03;4304535;33;33888;-72
2022/12/27 06:47:44;;;;;;;0.47;0.47;;;;;;;8.54;76.81;99908.44;4304757;33;35785;-72
2022/12/27 06:50:12;;;;;;;2.10;1.65;;;;;;;8.43;76.91;99915.28;4304656;33;34361;-75
2022/12/27 06:52:41;;;;;;;0.70;0.70;;;;;;;8.36;76.73;99916.06;4304467;33;33462;-72
2022/12/27 06:55:09;;;;;;;0.50;0.50;;;;;;;8.80;75.16;99912.91;4304580;33;34064;-72
2022/12/27 06:57:37;;;;;;;1.87;1.77;;;;;;;8.40;76.87;99923.03;4303387;33;35180;-75
2022/12/27 07:00:06;;;;;;;0.47;0.47;;;;;;;8.50;76.17;99906.69;4304468;33;35051;-75
2022/12/27 07:02:34;;;;;;;0.40;0.40;;;;;;;8.88;74.61;99924.22;4304527;33;33527;-75
2022/12/27 07:05:03;;;;;;;0.52;0.52;;;;;;;9.02;73.72;99924.31;4304164;33;34543;-75
2022/12/27 07:07:32;;;;;;;0.70;0.70;;;;;;;9.24;72.55;99933.06;4304336;33;35761;-72
2022/12/27 07:10:02;;;;;;;0.52;0.50;;;;;;;9.66;71.23;99926.25;4304502;33;34260;-76
2022/12/27 07:12:30;;;;;;;1.37;1.25;;;;;;;10.07;68.92;99922.00;4304384;33;33551;-76
2022/12/27 07:15:05;;;;;;;0.40;0.40;;;;;;;9.91;69.27;99933.25;4304421;33;33827;-71
2022/12/27 07:17:34;;;;;;;0.73;0.73;;;;;;;10.19;68.42;99928.94;4303144;33;35032;-72
2022/12/27 07:20:04;;;;;;;0.40;0.40;;;;;;;10.05;68.67;99929.78;4304369;33;34498;-72
2022/12/27 07:22:33;;;;;;;0.40;0.40;;;;;;;10.43;66.36;99928.12;4291374;33;33435;-69
2022/12/27 07:25:01;;;;;;;0.40;0.40;;;;;;;10.38;66.29;99930.72;4304498;33;34062;-70
2022/12/27 07:27:32;;;;;;;0.40;0.40;;;;;;;10.14;66.60;99930.66;4304446;33;35160;-70
2022/12/27 07:30:01;;;;;;;0.35;0.35;;;;;;;9.92;67.77;99927.16;4303372;33;34324;-74
2022/12/27 07:32:29;;;;;;;0.40;0.40;;;;;;;9.71;67.74;99915.03;4304461;33;33026;-73
2022/12/27 07:35:01;;;;;;;1.08;0.98;;;;;;;9.59;68.35;99915.84;4304346;33;33999;-72
2022/12/27 07:37:29;;;;;;;0.40;0.40;;;;;;;9.81;68.38;99911.53;4291090;33;33822;-71
2022/12/27 07:39:57;;;;;;;0.40;0.40;;;;;;;9.87;68.37;99919.38;4303104;33;34267;-72
2022/12/27 07:42:27;;;;;;;0.50;0.50;;;;;;;9.99;67.56;99916.78;4303139;33;33500;-73
2022/12/27 07:44:55;;;;;;;0.50;0.50;;;;;;;10.25;65.87;99928.94;4304032;33;33184;-72
2022/12/27 07:47:23;;;;;;;0.40;0.40;;;;;;;10.50;65.35;99952.38;4290939;33;34868;-73
2022/12/27 07:49:52;;;;;;;0.40;0.40;;;;;;;10.55;64.34;99950.66;4291321;33;34600;-72
2022/12/27 07:52:20;;;;;;;0.40;0.40;;;;;;;11.11;62.64;99952.28;4302896;33;33459;-71
2022/12/27 07:54:49;;;;;;;0.60;0.60;;;;;;;10.84;62.72;99968.84;4302992;33;33923;-74
2022/12/27 07:57:18;;;;;;;0.88;0.88;;;;;;;10.70;63.55;99981.91;4291164;33;35039;-75
2022/12/27 07:59:46;;;;;;;1.12;1.12;;;;;;;11.63;60.31;99979.00;4291062;33;35243;-73
2022/12/27 08:02:15;;;;;;;0.40;0.40;;;;;;;11.17;61.58;99990.47;4303966;33;33508;-73
2022/12/27 08:04:44;;;;;;;0.60;0.60;;;;;;;11.82;59.19;100001.53;4291212;33;33936;-74
2022/12/27 08:07:15;;;;;;;0.40;0.40;;;;;;;11.32;60.45;100002.63;4303879;33;35928;-74
2022/12/27 08:09:45;;;;;;;4.72;1.25;;;;;;;12.01;58.63;100004.94;4291009;33;35200;-73
2022/12/27 08:12:14;;;;;;;0.40;0.40;;;;;;;11.55;59.01;100012.97;4290875;33;34117;-73
2022/12/27 08:14:43;;;;;;;0.50;0.50;;;;;;;11.79;59.22;100011.09;4290649;33;32725;-72
2022/12/27 08:17:21;;;;;;;0.50;0.50;;;;;;;11.95;57.91;100012.81;4292430;33;35942;-70
2022/12/27 08:19:52;;;;;;;0.50;0.50;;;;;;;11.95;57.97;100007.59;4293619;33;34399;-74
2022/12/27 08:22:22;;;;;;;0.50;0.50;;;;;;;11.64;59.15;100006.84;4292654;33;34293;-73
2022/12/27 08:24:50;;;;;;;0.40;0.40;;;;;;;11.74;58.76;100004.19;4292525;33;32117;-74
2022/12/27 08:27:21;;;;;;;0.60;0.60;;;;;;;10.82;60.86;100010.53;4304520;33;35005;-74
2022/12/27 08:29:49;;;;;;;0.43;0.43;;;;;;;10.85;61.78;100012.25;4292921;33;35228;-74
2022/12/27 08:32:17;;;;;;;0.50;0.50;;;;;;;10.82;62.03;100026.16;4304515;33;33026;-73
2022/12/27 08:34:45;;;;;;;0.62;0.62;;;;;;;11.29;60.65;100036.50;4305596;33;34352;-74
2022/12/27 08:37:16;;;;;;;0.30;0.30;;;;;;;11.15;60.69;100039.16;4292583;33;33392;-76
2022/12/27 08:39:44;;;;;;;5.82;2.37;;;;;;;11.15;60.45;100037.44;4305980;33;35162;-73
2022/12/27 08:42:13;;;;;;;0.40;0.40;;;;;;;11.22;59.86;100055.66;4305723;33;34320;-76
2022/12/27 08:44:41;;;;;;;2.15;1.55;;;;;;;11.12;59.64;100047.84;4292542;33;34794;-77
2022/12/27 08:47:09;;;;;;;0.60;0.60;;;;;;;12.02;56.56;100045.84;4305663;33;34957;-75
2022/12/27 08:49:37;;;;;;;0.32;0.32;;;;;;;12.93;54.48;100046.94;4305741;33;34298;-74
2022/12/27 08:52:06;;;;;;;0.30;0.30;;;;;;;13.34;52.57;100054.41;4296907;33;33520;-75
2022/12/27 08:54:34;;;;;;;0.30;0.30;;;;;;;13.42;51.47;100056.94;4305480;33;34100;-69
2022/12/27 08:57:02;;;;;;;0.30;0.30;;;;;;;14.37;48.72;100050.47;4305439;33;34917;-75
2022/12/27 08:59:30;;;;;;;0.30;0.30;;;;;;;14.82;47.86;100051.56;4304515;33;34547;-71
2022/12/27 09:01:58;;;;;;;0.30;0.30;;;;;;;15.09;46.36;100045.00;4305468;33;33368;-74
2022/12/27 09:04:27;;;;;;;0.30;0.30;;;;;;;14.69;46.35;100050.91;4304363;33;33931;-73
2022/12/27 09:06:55;;;;;;;0.40;0.40;;;;;;;13.34;48.06;100064.88;4305487;33;35058;-73
2022/12/27 09:09:23;;;;;;;0.50;0.50;;;;;;;13.51;48.15;100066.44;4305397;33;34501;-75
2022/12/27 09:11:51;;;;;;;0.45;0.45;;;;;;;13.78;48.15;100071.37;4305391;33;34202;-75
2022/12/27 09:14:20;;;;;;;4.25;2.42;;;;;;;12.52;49.04;100064.69;4292116;33;33326;-74
2022/12/27 09:16:48;;;;;;;0.60;0.60;;;;;;;13.09;48.08;100064.19;4305167;33;34997;-71
2022/12/27 09:19:17;;;;;;;0.52;0.52;;;;;;;12.37;49.67;100076.09;4304246;33;35040;-72
2022/12/27 09:21:45;;;;;;;0.40;0.40;;;;;;;13.18;48.49;100068.47;4305273;33;33417;-75
2022/12/27 09:24:14;;;;;;;0.40;0.40;;;;;;;14.32;45.39;100073.25;4305626;33;33982;-75
2022/12/27 09:26:42;;;;;;;0.30;0.30;;;;;;;14.06;45.52;100076.22;4291963;33;34982;-77
2022/12/27 09:29:10;;;;;;;0.30;0.30;;;;;;;12.52;46.72;100088.19;4291996;33;35057;-73
2022/12/27 09:31:38;;;;;;;0.30;0.30;;;;;;;11.38;48.51;100083.41;4305560;33;33105;-76
2022/12/27 09:34:08;;;;;;;0.40;0.40;;;;;;;9.97;51.14;100086.75;4305304;33;33948;-75
2022/12/27 09:36:38;;;;;;;0.40;0.40;;;;;;;9.24;52.13;100085.50;4304175;33;35185;-75
2022/12/27 09:39:06;;;;;;;0.40;0.40;;;;;;;9.43;52.38;100091.69;4305243;33;35184;-76
2022/12/27 09:42:12;;;;;;;0.55;0.55;;;;;;;10.20;50.84;100097.22;4305511;33;33157;-75
2022/12/27 09:45:12;;;;;;;0.40;0.40;;;;;;;10.56;49.92;100108.63;4305000;33;34087;-74
2022/12/27 09:47:49;;;;;;;0.40;0.40;;;;;;;10.68;48.72;100100.00;4304240;33;34058;-77
2022/12/27 09:50:29;;;;;;;0.40;0.40;;;;;;;10.53;49.66;100106.03;4304132;33;32748;-74
2022/12/27 09:53:21;;;;;;;0.35;0.35;;;;;;;12.03;46.05;100114.56;4292295;33;32549;-77
2022/12/27 09:55:55;;;;;;;0.50;0.50;;;;;;;12.27;44.55;100119.66;4304440;33;33938;-74
2022/12/27 09:58:44;;;;;;;0.30;0.30;;;;;;;12.64;43.32;100114.22;4304097;33;34936;-73
2022/12/27 10:01:35;;;;;;;0.30;0.30;;;;;;;13.46;41.51;100114.47;4305161;33;34517;-74
2022/12/27 10:04:11;;;;;;;0.40;0.40;;;;;;;13.28;41.01;100120.69;4305037;33;33557;-75
2022/12/27 10:06:48;;;;;;;0.30;0.30;;;;;;;12.83;42.54;100114.97;4292246;33;33174;-77
2022/12/27 10:09:32;;;;;;;0.30;0.30;;;;;;;13.26;41.15;100126.81;4305101;33;35096;-77
2022/12/27 10:12:08;;;;;;;0.40;0.40;;;;;;;13.08;42.19;100136.56;4292158;33;34422;-76
2022/12/27 10:14:49;;;;;;;0.40;0.40;;;;;;;12.45;41.95;100131.75;4292197;33;33254;-76
2022/12/27 10:17:46;;;;;;;0.32;0.32;;;;;;;13.06;40.52;100148.78;4291747;33;32045;-77
2022/12/27 10:20:48;;;;;;;0.40;0.40;;;;;;;12.50;41.85;100150.03;4303495;33;35033;-76
2022/12/27 10:23:21;;;;;;;0.35;0.35;;;;;;;13.02;40.12;100146.19;4304984;33;34421;-76
2022/12/27 10:25:59;;;;;;;0.40;0.40;;;;;;;14.25;38.88;100151.97;4303837;33;34320;-75
2022/12/27 10:28:42;;;;;;;0.20;0.20;;;;;;;14.59;37.81;100163.75;4292066;33;33639;-77
2022/12/27 10:31:14;;;;;;;0.20;0.20;;;;;;;14.40;37.74;100149.16;4305033;33;35146;-70
2022/12/27 10:33:44;;;;;;;0.80;0.80;;;;;;;12.68;41.17;100155.13;4292022;33;35261;-74
2022/12/27 10:36:15;;;;;;;0.43;0.43;;;;;;;12.59;41.19;100152.59;4291839;33;33459;-76
2022/12/27 10:38:43;;;;;;;0.37;0.37;;;;;;;14.44;39.43;100148.22;4291874;33;34904;-73
2022/12/27 10:41:34;;;;;;;0.52;0.52;;;;;;;14.15;39.36;100130.25;4291086;33;34584;-77
2022/12/27 10:44:11;;;;;;;0.40;0.40;;;;;;;14.43;38.96;100130.75;4292191;33;33002;-76
2022/12/27 10:46:41;;;;;;;0.30;0.30;;;;;;;14.65;38.46;100127.84;4303641;33;31652;-80
2022/12/27 10:49:28;;;;;;;0.30;0.30;;;;;;;15.00;38.91;100134.31;4291905;33;34111;-82
2022/12/27 10:52:27;;;;;;;0.70;0.55;;;;;;;14.77;38.38;100148.63;4304845;33;35124;-82
2022/12/27 10:54:56;;;;;;;0.35;0.35;;;;;;;15.43;37.03;100150.19;4285748;33;35228;-79
2022/12/27 10:57:27;;;;;;;0.40;0.40;;;;;;;14.22;39.02;100139.75;4303800;33;32242;-78
2022/12/27 11:00:17;;;;;;;0.30;0.30;;;;;;;15.57;37.26;100151.72;4291843;33;33096;-80
2022/12/27 11:02:57;;;;;;;0.47;0.47;;;;;;;14.63;38.43;100150.59;4304485;33;35858;-79
2022/12/27 11:05:28;;;;;;;0.40;0.40;;;;;;;15.73;37.32;100163.66;4291747;33;34232;-78
2022/12/27 11:07:56;;;;;;;0.20;0.20;;;;;;;16.19;37.24;100164.56;4303645;33;32191;-78
2022/12/27 11:10:30;;;;;;;0.40;0.40;;;;;;;16.40;34.68;100165.87;4291611;33;33961;-74
2022/12/27 11:13:04;;;;;;;0.30;0.30;;;;;;;16.26;34.41;100168.78;4291704;33;35917;-77
2022/12/27 11:15:37;;;;;;;0.37;0.37;;;;;;;16.69;33.61;100154.69;4303409;33;33019;-77
2022/12/27 11:18:17;;;;;;;0.65;0.65;;;;;;;15.57;35.55;100141.22;4303406;33;33324;-77
2022/12/27 11:20:49;;;;;;;0.98;0.98;;;;;;;16.29;34.74;100142.44;4304581;33;33966;-74
2022/12/27 11:23:18;;;;;;;0.30;0.30;;;;;;;16.64;34.42;100148.66;4303607;33;35930;-77
2022/12/27 11:25:54;;;;;;;0.30;0.30;;;;;;;15.43;36.91;100149.34;4279708;33;35083;-76
2022/12/27 11:28:32;;;;;;;0.20;0.20;;;;;;;14.77;38.22;100156.50;4303290;33;33432;-76
2022/12/27 11:31:05;;;;;;;0.30;0.30;;;;;;;14.63;38.83;100167.22;4291653;33;34046;-77
2022/12/27 11:33:38;;;;;;;0.50;0.50;;;;;;;15.11;37.56;100158.63;4302354;33;35039;-77
2022/12/27 11:36:08;;;;;;;0.40;0.40;;;;;;;14.44;38.06;100148.22;4302720;33;35142;-72
2022/12/27 11:38:38;;;;;;;0.40;0.40;;;;;;;14.14;37.09;100152.97;4291046;33;33072;-68
2022/12/27 11:41:11;;;;;;;0.45;0.45;;;;;;;12.22;41.17;100154.53;4304264;33;34079;-71
2022/12/27 11:43:43;;;;;;;0.37;0.37;;;;;;;13.28;39.98;100153.81;4303012;33;35016;-74
2022/12/27 11:46:42;;;;;;;0.30;0.30;;;;;;;12.92;39.56;100152.34;4304263;33;34539;-74
2022/12/27 11:49:27;;;;;;;0.47;0.47;;;;;;;14.35;36.59;100154.44;4304510;33;33794;-74
2022/12/27 11:52:14;;;;;;;0.50;0.50;;;;;;;13.89;37.79;100157.62;4303541;33;33955;-75
2022/12/27 11:54:54;;;;;;;;;;;;;;;14.05;38.06;100171.41;4292984;33;34154;-70
2022/12/27 11:57:59;;;;;;;0.30;0.30;;;;;;;14.27;37.16;100166.75;4305976;33;34725;-75
2022/12/27 12:00:32;;;;;;;0.50;0.50;;;;;;;13.76;37.65;100175.19;4293065;33;34225;-73
2022/12/27 12:03:26;;;;;;;0.32;0.32;;;;;;;13.62;37.13;100153.53;4293671;33;33911;-75
2022/12/27 12:06:06;;;;;;;0.40;0.40;;;;;;;13.76;35.77;100148.16;4305840;33;34983;-77
2022/12/27 12:08:53;;;;;;;0.30;0.30;;;;;;;13.11;36.04;100163.56;4305862;33;35261;-74
2022/12/27 12:11:24;;;;;;;0.30;0.30;;;;;;;12.56;36.47;100163.03;4305967;33;33098;-72
2022/12/27 12:14:17;;;;;;;0.40;0.40;;;;;;;12.19;37.90;100151.91;4305913;33;34774;-70
2022/12/27 12:17:06;;;;;;;0.40;0.40;;;;;;;12.28;38.20;100157.09;4305774;33;35113;-71
2022/12/27 12:19:35;;;;;;;0.40;0.40;;;;;;;12.26;37.14;100149.25;4305978;33;35282;-71
2022/12/27 12:22:38;;;;;;;0.50;0.50;;;;;;;13.67;36.81;100151.75;4305708;33;33435;-72
2022/12/27 12:25:25;;;;;;;0.40;0.40;;;;;;;12.66;37.13;100154.28;4300080;33;33751;-76
2022/12/27 12:27:59;;;;;;;0.40;0.40;;;;;;;11.36;39.81;100132.09;4305723;33;35090;-77
2022/12/27 12:30:37;;;;;;;3.20;0.95;;;;;;;11.93;39.92;100124.19;4292497;33;33707;-71
2022/12/27 12:33:17;;;;;;;0.40;0.40;;;;;;;10.92;39.94;100126.03;4306018;33;34274;-71
2022/12/27 12:36:05;;;;;;;0.50;0.50;;;;;;;9.84;41.69;100136.13;4292682;33;33977;-77
2022/12/27 12:38:57;;;;;;;0.60;0.60;;;;;;;10.36;41.29;100119.88;4305632;33;35982;-71
2022/12/27 12:41:34;;;;;;;0.50;0.50;;;;;;;9.92;42.39;100128.37;4305637;33;34378;-74
2022/12/27 12:44:42;;;;;;;0.52;0.52;;;;;;;8.89;43.71;100144.16;4305404;33;33221;-72
2022/12/27 12:47:36;;;;;;;0.85;0.85;;;;;;;8.74;44.38;100151.78;4293084;33;34012;-76
2022/12/27 12:50:27;;;;;;;0.50;0.50;;;;;;;9.15;44.25;100146.06;4292431;33;35024;-76
2022/12/27 12:53:21;;;;;;;0.50;0.50;;;;;;;8.82;43.40;100151.84;4280713;33;32894;-78
2022/12/27 12:56:08;;;;;;;0.40;0.40;;;;;;;8.48;45.75;100162.75;4292474;33;32992;-78
2022/12/27 12:58:46;;;;;;;0.50;0.50;;;;;;;8.51;45.43;100162.78;4305639;33;34098;-70
2022/12/27 13:01:33;;;;;;;0.55;0.55;;;;;;;8.21;46.29;100170.22;4305500;33;34791;-76
2022/12/27 13:04:29;;;;;;;0.43;0.43;;;;;;;7.79;46.82;100182.63;4304992;33;34353;-74
2022/12/27 13:07:24;;;;;;;0.47;0.47;;;;;;;8.19;46.04;100183.16;4304436;33;32264;-72
2022/12/27 13:10:14;;;;;;;0.43;0.43;;;;;;;8.16;46.78;100178.78;4275987;33;33849;-78
2022/12/27 13:13:06;;;;;;;0.40;0.40;;;;;;;8.56;45.06;100188.81;4305465;33;35933;-72
2022/12/27 13:15:45;;;;;;;0.50;0.50;;;;;;;8.58;44.50;100191.41;4292667;33;34025;-70
2022/12/27 13:18:18;;;;;;;0.60;0.60;;;;;;;7.96;46.11;100182.87;4305449;33;34174;-70
2022/12/27 13:21:40;;;;;;;0.68;0.68;;;;;;;7.67;46.81;100177.25;4293258;33;33901;-70
2022/12/27 13:24:27;;;;;;;0.55;0.55;;;;;;;7.72;46.93;100176.47;4305168;33;35812;-71
2022/12/27 13:27:47;;;;;;;0.40;0.40;;;;;;;7.22;47.48;100182.63;4305310;33;34415;-77
2022/12/27 13:30:21;;;;;;;0.60;0.60;;;;;;;7.19;47.74;100192.06;4286610;33;34108;-70
2022/12/27 13:32:59;;;;;;;0.50;0.50;;;;;;;7.44;47.95;100205.41;4304233;33;34041;-76
2022/12/27 13:35:33;;;;;;;0.93;0.93;;;;;;;6.96;48.85;100209.81;4305365;33;34928;-74
2022/12/27 13:38:26;;;;;;;0.57;0.57;;;;;;;7.19;48.87;100199.84;4304221;33;34537;-78
2022/12/27 13:41:23;;;;;;;0.40;0.40;;;;;;;7.20;49.07;100211.94;4280656;33;32371;-72
2022/12/27 13:44:16;;;;;;;0.50;0.50;;;;;;;7.19;48.26;100220.56;4293026;33;34004;-74
2022/12/27 13:47:05;;;;;;;0.50;0.50;;;;;;;6.90;49.47;100222.63;4305584;33;36062;-73